Freedom of the Seas — C6UZ7 — position and weather

sailwx.info

Track history (hours):
 
Tides and Currents Weather Stations Pressure Air Temp Water Temp Dewpoint Dewpoint Depression Visibility Wind Speed Wind Dir Waves Ship Positions

Freedom of the Seas

Last reported at 2017-Dec-11 09:00 UTC. Time now 2017-Dec-13 03:38 UTC.
Position N 20°12' W 071°18'.

Length 339 m; draft 9 m.

Type: Passenger vessel. MMSI: 309906000.

Wind from 110 at 15 knots

Barometer 1015.0 mb
Air temperature 26.0 ° C
Visibility: greater than 10.8 NM
Dewpoint 19.9 ° C
Water temperature 26.0 ° C

Date/timePositionNaut miles runAvg speedWind from/ knotsBaromVisibWave heightAir tempDewpointWater temp
2017-Dec-11 09:00N 20°12' W 071°18'42919.5 110 / 151015.010.8 26.019.926.0
2017-Dec-10 11:00N 22°42' W 078°30'18218.8 360 / 341017.010.8 22.015.426.0
2017-Dec-10 01:19N 25°30' W 079°48'517.7
2017-Dec-10 01:00N 25°35' W 079°50'917.3
2017-Dec-10 00:30N 25°43' W 079°52'917.4
2017-Dec-10 00:00N 25°52' W 079°54'816.5
2017-Dec-09 23:30N 25°59' W 079°57'816.1
2017-Dec-09 23:00N 26°05' W 080°04'2 4.9
2017-Dec-09 22:30N 26°05' W 080°07'0 0.3
2017-Dec-09 21:59N 26°05' W 080°07'0 0.0
2017-Dec-09 21:29N 26°05' W 080°07'0 0.0
2017-Dec-09 20:47N 26°05' W 080°07'0 0.0
2017-Dec-09 20:20N 26°05' W 080°07'0 0.0
2017-Dec-09 19:50N 26°05' W 080°07'0 0.0
2017-Dec-09 19:23N 26°05' W 080°07'0 0.0
2017-Dec-09 18:53N 26°05' W 080°07'0 0.0
2017-Dec-09 18:23N 26°05' W 080°07'0 0.0
2017-Dec-09 17:53N 26°05' W 080°07'0 0.0
2017-Dec-09 17:23N 26°05' W 080°07'0 0.0
2017-Dec-09 16:56N 26°05' W 080°07'0 0.0
2017-Dec-09 16:26N 26°05' W 080°07'0 0.0
2017-Dec-09 15:56N 26°05' W 080°07'0 0.0
2017-Dec-09 15:26N 26°05' W 080°07'0 0.0
2017-Dec-09 14:56N 26°05' W 080°07'0 0.0
2017-Dec-09 14:26N 26°05' W 080°07'0 0.0
2017-Dec-09 13:56N 26°05' W 080°07'0 0.0
2017-Dec-09 13:26N 26°05' W 080°07'0 0.0
2017-Dec-09 12:59N 26°05' W 080°07'0 0.0
2017-Dec-09 12:29N 26°05' W 080°07'0 0.0
2017-Dec-09 11:59N 26°05' W 080°07'0 0.0
2017-Dec-09 11:29N 26°05' W 080°07'0 0.0
2017-Dec-09 10:59N 26°05' W 080°07'0 0.1
2017-Dec-09 10:30N 26°05' W 080°07'1 1.3
2017-Dec-09 10:00N 26°06' W 080°07'5 9.1
2017-Dec-09 09:30N 26°05' W 080°02'510.2
2017-Dec-09 09:00N 26°01' W 079°58'612.2
2017-Dec-09 08:30N 25°56' W 079°54'612.5
2017-Dec-09 08:00N 25°51' W 079°50'612.6
2017-Dec-09 07:30N 25°45' W 079°48'713.9
2017-Dec-09 07:00N 25°38' W 079°48'713.8
2017-Dec-09 06:30N 25°31' W 079°49'713.5
2017-Dec-09 05:59N 25°24' W 079°50'27914.0
2017-Dec-08 10:00N 23°00' W 084°12'20818.3 150 / 111013.010.8 25.020.526.0
2017-Dec-07 22:37N 20°37' W 086°56'219.6
2017-Dec-07 22:30N 20°36' W 086°57'713.0
2017-Dec-07 22:01N 20°29' W 086°59'0 0.5
2017-Dec-07 21:30N 20°29' W 086°59'0 0.0
2017-Dec-07 21:00N 20°29' W 086°59'0 0.0
2017-Dec-07 20:24N 20°29' W 086°59'0 0.0
2017-Dec-07 20:00N 20°29' W 086°59'0 0.0
2017-Dec-07 19:30N 20°29' W 086°59'0 0.0
2017-Dec-07 19:00N 20°29' W 086°59'0 0.0
2017-Dec-07 18:30N 20°29' W 086°59'0 0.0
2017-Dec-07 17:57N 20°29' W 086°59'0 0.0
2017-Dec-07 17:27N 20°29' W 086°59'0 0.0
2017-Dec-07 17:00N 20°29' W 086°59'0 0.0
2017-Dec-07 16:30N 20°29' W 086°59'0 0.0
2017-Dec-07 16:00N 20°29' W 086°59'0 0.0
2017-Dec-07 15:30N 20°29' W 086°59'0 0.0
2017-Dec-07 15:00N 20°29' W 086°59'0 0.0
2017-Dec-07 14:27N 20°29' W 086°59'0 0.0
2017-Dec-07 14:00N 20°29' W 086°59'0 0.0
2017-Dec-07 13:30N 20°29' W 086°59'0 0.0
2017-Dec-07 13:00N 20°29' W 086°59'0 0.6
2017-Dec-07 12:31N 20°29' W 086°59'2 4.9
2017-Dec-07 12:00N 20°28' W 087°01'5 9.1
2017-Dec-07 11:30N 20°24' W 087°03'111 4.4
2017-Dec-06 10:00N 18°54' W 085°54'394 7.9 090 / 181015.010.8 26.019.926.0
2017-Dec-04 08:00N 24°06' W 081°36'11818.5 090 / 181019.010.8 24.017.726.0
2017-Dec-04 01:38N 25°24' W 079°59'217.5
2017-Dec-04 01:30N 25°27' W 079°59'917.5
2017-Dec-04 01:00N 25°35' W 079°58'917.5
2017-Dec-04 00:30N 25°44' W 079°57'917.4
2017-Dec-04 00:00N 25°52' W 079°55'816.6
2017-Dec-03 23:30N 26°00' W 079°57'815.8
2017-Dec-03 23:00N 26°05' W 080°05'2 3.9
2017-Dec-03 22:30N 26°05' W 080°07'0 0.2
2017-Dec-03 21:58N 26°05' W 080°07'0 0.0
2017-Dec-03 21:28N 26°05' W 080°07'0 0.0
2017-Dec-03 20:58N 26°05' W 080°07'0 0.0
2017-Dec-03 20:19N 26°05' W 080°07'0 0.0
2017-Dec-03 19:49N 26°05' W 080°07'0 0.0
2017-Dec-03 19:22N 26°05' W 080°07'0 0.0
2017-Dec-03 18:52N 26°05' W 080°07'0 0.0
2017-Dec-03 18:22N 26°05' W 080°07'0 0.0
2017-Dec-03 17:52N 26°05' W 080°07'0 0.0
2017-Dec-03 17:22N 26°05' W 080°07'0 0.0
2017-Dec-03 16:52N 26°05' W 080°07'0 0.0
2017-Dec-03 16:25N 26°05' W 080°07'0 0.0
2017-Dec-03 15:55N 26°05' W 080°07'0 0.0
2017-Dec-03 15:25N 26°05' W 080°07'0 0.0
2017-Dec-03 14:55N 26°05' W 080°07'0 0.0
2017-Dec-03 14:25N 26°05' W 080°07'0 0.0
2017-Dec-03 13:58N 26°05' W 080°07'0 0.0
2017-Dec-03 13:28N 26°05' W 080°07'0 0.0
2017-Dec-03 12:58N 26°05' W 080°07'0 0.0
2017-Dec-03 12:28N 26°05' W 080°07'0 0.0
2017-Dec-03 11:58N 26°05' W 080°07'0 0.0
2017-Dec-03 11:28N 26°05' W 080°07'0 0.0
2017-Dec-03 10:58N 26°05' W 080°07'0 0.0
2017-Dec-03 10:30N 26°05' W 080°07'1 1.4
2017-Dec-03 10:00N 26°06' W 080°07'5 9.5
2017-Dec-03 09:30N 26°05' W 080°02'510.3
2017-Dec-03 09:00N 25°60' W 080°00'612.1
2017-Dec-03 08:30N 25°54' W 079°58'612.0
2017-Dec-03 08:00N 25°48' W 079°57'6410.5
2017-Dec-03 08:00N 25°42' W 079°54'1 1.9 060 / 181018.010.8 24.017.726.0
2017-Dec-03 07:31N 25°41' W 079°55'815.2
2017-Dec-03 07:00N 25°34' W 079°53'24916.6
2017-Dec-02 16:00N 22°06' W 077°24'28417.8 040 / 251017.010.8 26.018.227.0
2017-Dec-02 00:00N 20°06' W 072°48'   020 / 151013.110.8 27.024.128.0
Track history (hours):
 
Tides and Currents Weather Stations Pressure Air Temp Water Temp Dewpoint Dewpoint Depression Visibility Wind Speed Wind Dir Waves Ship Positions

Freedom of the Seas

Last reported at 2017-Dec-11 09:00 UTC. Time now 2017-Dec-13 03:38 UTC.
Position N 20°12' W 071°18'.

Length 339 m; draft 9 m.

Type: Passenger vessel. MMSI: 309906000.

Wind from 110 at 15 knots

Barometer 1015.0 mb
Air temperature 26.0 ° C
Visibility: greater than 10.8 NM
Dewpoint 19.9 ° C
Water temperature 26.0 ° C

Date/timePositionNaut miles runAvg speedWind from/ knotsBaromVisibWave heightAir tempDewpointWater temp
2017-Dec-11 09:00N 20°12' W 071°18'42919.5 110 / 151015.010.8 26.019.926.0
2017-Dec-10 11:00N 22°42' W 078°30'18218.8 360 / 341017.010.8 22.015.426.0
2017-Dec-10 01:19N 25°30' W 079°48'517.7
2017-Dec-10 01:00N 25°35' W 079°50'917.3
2017-Dec-10 00:30N 25°43' W 079°52'917.4
2017-Dec-10 00:00N 25°52' W 079°54'816.5
2017-Dec-09 23:30N 25°59' W 079°57'816.1
2017-Dec-09 23:00N 26°05' W 080°04'2 4.9
2017-Dec-09 22:30N 26°05' W 080°07'0 0.3
2017-Dec-09 21:59N 26°05' W 080°07'0 0.0
2017-Dec-09 21:29N 26°05' W 080°07'0 0.0
2017-Dec-09 20:47N 26°05' W 080°07'0 0.0
2017-Dec-09 20:20N 26°05' W 080°07'0 0.0
2017-Dec-09 19:50N 26°05' W 080°07'0 0.0
2017-Dec-09 19:23N 26°05' W 080°07'0 0.0
2017-Dec-09 18:53N 26°05' W 080°07'0 0.0
2017-Dec-09 18:23N 26°05' W 080°07'0 0.0
2017-Dec-09 17:53N 26°05' W 080°07'0 0.0
2017-Dec-09 17:23N 26°05' W 080°07'0 0.0
2017-Dec-09 16:56N 26°05' W 080°07'0 0.0
2017-Dec-09 16:26N 26°05' W 080°07'0 0.0
2017-Dec-09 15:56N 26°05' W 080°07'0 0.0
2017-Dec-09 15:26N 26°05' W 080°07'0 0.0
2017-Dec-09 14:56N 26°05' W 080°07'0 0.0
2017-Dec-09 14:26N 26°05' W 080°07'0 0.0
2017-Dec-09 13:56N 26°05' W 080°07'0 0.0
2017-Dec-09 13:26N 26°05' W 080°07'0 0.0
2017-Dec-09 12:59N 26°05' W 080°07'0 0.0
2017-Dec-09 12:29N 26°05' W 080°07'0 0.0
2017-Dec-09 11:59N 26°05' W 080°07'0 0.0
2017-Dec-09 11:29N 26°05' W 080°07'0 0.0
2017-Dec-09 10:59N 26°05' W 080°07'0 0.1
2017-Dec-09 10:30N 26°05' W 080°07'1 1.3
2017-Dec-09 10:00N 26°06' W 080°07'5 9.1
2017-Dec-09 09:30N 26°05' W 080°02'510.2
2017-Dec-09 09:00N 26°01' W 079°58'612.2
2017-Dec-09 08:30N 25°56' W 079°54'612.5
2017-Dec-09 08:00N 25°51' W 079°50'612.6
2017-Dec-09 07:30N 25°45' W 079°48'713.9
2017-Dec-09 07:00N 25°38' W 079°48'713.8
2017-Dec-09 06:30N 25°31' W 079°49'713.5
2017-Dec-09 05:59N 25°24' W 079°50'27914.0
2017-Dec-08 10:00N 23°00' W 084°12'20818.3 150 / 111013.010.8 25.020.526.0
2017-Dec-07 22:37N 20°37' W 086°56'219.6
2017-Dec-07 22:30N 20°36' W 086°57'713.0
2017-Dec-07 22:01N 20°29' W 086°59'0 0.5
2017-Dec-07 21:30N 20°29' W 086°59'0 0.0
2017-Dec-07 21:00N 20°29' W 086°59'0 0.0
2017-Dec-07 20:24N 20°29' W 086°59'0 0.0
2017-Dec-07 20:00N 20°29' W 086°59'0 0.0
2017-Dec-07 19:30N 20°29' W 086°59'0 0.0
2017-Dec-07 19:00N 20°29' W 086°59'0 0.0
2017-Dec-07 18:30N 20°29' W 086°59'0 0.0
2017-Dec-07 17:57N 20°29' W 086°59'0 0.0
2017-Dec-07 17:27N 20°29' W 086°59'0 0.0
2017-Dec-07 17:00N 20°29' W 086°59'0 0.0
2017-Dec-07 16:30N 20°29' W 086°59'0 0.0
2017-Dec-07 16:00N 20°29' W 086°59'0 0.0
2017-Dec-07 15:30N 20°29' W 086°59'0 0.0
2017-Dec-07 15:00N 20°29' W 086°59'0 0.0
2017-Dec-07 14:27N 20°29' W 086°59'0 0.0
2017-Dec-07 14:00N 20°29' W 086°59'0 0.0
2017-Dec-07 13:30N 20°29' W 086°59'0 0.0
2017-Dec-07 13:00N 20°29' W 086°59'0 0.6
2017-Dec-07 12:31N 20°29' W 086°59'2 4.9
2017-Dec-07 12:00N 20°28' W 087°01'5 9.1
2017-Dec-07 11:30N 20°24' W 087°03'111 4.4
2017-Dec-06 10:00N 18°54' W 085°54'394 7.9 090 / 181015.010.8 26.019.926.0
2017-Dec-04 08:00N 24°06' W 081°36'11818.5 090 / 181019.010.8 24.017.726.0
2017-Dec-04 01:38N 25°24' W 079°59'217.5
2017-Dec-04 01:30N 25°27' W 079°59'917.5
2017-Dec-04 01:00N 25°35' W 079°58'917.5
2017-Dec-04 00:30N 25°44' W 079°57'917.4
2017-Dec-04 00:00N 25°52' W 079°55'816.6
2017-Dec-03 23:30N 26°00' W 079°57'815.8
2017-Dec-03 23:00N 26°05' W 080°05'2 3.9
2017-Dec-03 22:30N 26°05' W 080°07'0 0.2
2017-Dec-03 21:58N 26°05' W 080°07'0 0.0
2017-Dec-03 21:28N 26°05' W 080°07'0 0.0
2017-Dec-03 20:58N 26°05' W 080°07'0 0.0
2017-Dec-03 20:19N 26°05' W 080°07'0 0.0
2017-Dec-03 19:49N 26°05' W 080°07'0 0.0
2017-Dec-03 19:22N 26°05' W 080°07'0 0.0
2017-Dec-03 18:52N 26°05' W 080°07'0 0.0
2017-Dec-03 18:22N 26°05' W 080°07'0 0.0
2017-Dec-03 17:52N 26°05' W 080°07'0 0.0
2017-Dec-03 17:22N 26°05' W 080°07'0 0.0
2017-Dec-03 16:52N 26°05' W 080°07'0 0.0
2017-Dec-03 16:25N 26°05' W 080°07'0 0.0
2017-Dec-03 15:55N 26°05' W 080°07'0 0.0
2017-Dec-03 15:25N 26°05' W 080°07'0 0.0
2017-Dec-03 14:55N 26°05' W 080°07'0 0.0
2017-Dec-03 14:25N 26°05' W 080°07'0 0.0
2017-Dec-03 13:58N 26°05' W 080°07'0 0.0
2017-Dec-03 13:28N 26°05' W 080°07'0 0.0
2017-Dec-03 12:58N 26°05' W 080°07'0 0.0
2017-Dec-03 12:28N 26°05' W 080°07'0 0.0
2017-Dec-03 11:58N 26°05' W 080°07'0 0.0
2017-Dec-03 11:28N 26°05' W 080°07'0 0.0
2017-Dec-03 10:58N 26°05' W 080°07'0 0.0
2017-Dec-03 10:30N 26°05' W 080°07'1 1.4
2017-Dec-03 10:00N 26°06' W 080°07'5 9.5
2017-Dec-03 09:30N 26°05' W 080°02'510.3
2017-Dec-03 09:00N 25°60' W 080°00'612.1
2017-Dec-03 08:30N 25°54' W 079°58'612.0
2017-Dec-03 08:00N 25°48' W 079°57'6410.5
2017-Dec-03 08:00N 25°42' W 079°54'1 1.9 060 / 181018.010.8 24.017.726.0
2017-Dec-03 07:31N 25°41' W 079°55'815.2
2017-Dec-03 07:00N 25°34' W 079°53'24916.6
2017-Dec-02 16:00N 22°06' W 077°24'28417.8 040 / 251017.010.8 26.018.227.0
2017-Dec-02 00:00N 20°06' W 072°48'   020 / 151013.110.8 27.024.128.0

Dump ship's entire track history